Time;durP1;ratioP1;P1;durP2;ratioP2;P2;SDS_P1;SDS_P2;PMS_P1;PMS_P2;Temp;Humidity;BMP_temperature;BMP_pressure;BME280_temperature;BME280_humidity;BME280_pressure;Samples;Min_cycle;Max_cycle;Signal;HPM_P1;HPM_P2
2022/03/19 00:01:13;;;;;;;;;;;;;;;10.56;47.73;103179.06;6111140;23;6846;-74
2022/03/19 00:03:40;;;;;;;;;;;;;;;10.51;47.68;103184.53;6111354;23;6861;-74
2022/03/19 00:06:07;;;;;;;;;;;;;;;10.45;47.57;103181.41;6136798;23;6986;-74
2022/03/19 00:08:33;;;;;;;;;;;;;;;10.42;47.76;103182.03;6112483;23;6790;-74
2022/03/19 00:11:00;;;;;;;;;;;;;;;10.36;48.23;103184.88;6111784;23;6787;-74
2022/03/19 00:13:26;;;;;;;;;;;;;;;10.34;48.53;103193.19;6112534;23;6775;-74
2022/03/19 00:15:52;;;;;;;;;;;;;;;10.31;48.69;103187.78;6114310;23;7129;-74
2022/03/19 00:18:18;;;;;;;;;;;;;;;10.31;48.29;103180.97;6112696;23;6929;-74
2022/03/19 00:20:44;;;;;;;;;;;;;;;10.33;48.96;103181.13;6088390;23;7777;-74
2022/03/19 00:23:09;;;;;;;;;;;;;;;10.34;48.19;103172.69;6112091;23;6774;-74
2022/03/19 00:25:35;;;;;;;;;;;;;;;10.39;48.73;103174.03;6111712;23;6818;-74
2022/03/19 00:28:01;;;;;;;;;;;;;;;10.45;48.97;103174.59;6113880;23;6766;-74
2022/03/19 00:30:27;;;;;;;;;;;;;;;10.53;48.57;103176.22;6110206;23;6813;-74
2022/03/19 00:32:53;;;;;;;;;;;;;;;10.60;48.32;103172.56;6131652;23;7582;-74
2022/03/19 00:35:19;;;;;;;;;;;;;;;10.66;49.06;103165.44;6111382;23;7170;-74
2022/03/19 00:37:51;;;;;;;;;;;;;;;10.72;48.23;103175.34;6113493;23;6994;-74
2022/03/19 00:40:19;;;;;;;;;;;;;;;10.76;48.49;103168.84;6110745;23;6939;-74
2022/03/19 00:42:45;;;;;;;;;;;;;;;10.77;48.27;103168.09;6110621;23;7044;-74
2022/03/19 00:45:12;;;;;;;;;;;;;;;10.77;48.52;103170.66;6136397;23;7872;-75
2022/03/19 00:47:37;;;;;;;;;;;;;;;10.78;47.84;103164.75;6113029;23;6786;-75
2022/03/19 00:50:05;;;;;;;;;;;;;;;10.75;48.19;103164.50;6111193;23;7163;-75
2022/03/19 00:52:32;;;;;;;;;;;;;;;10.72;47.92;103165.09;6085225;23;8328;-74
2022/03/19 00:54:57;;;;;;;;;;;;;;;10.69;48.11;103165.72;6111394;23;7084;-74
2022/03/19 00:57:23;;;;;;;;;;;;;;;10.64;47.93;103153.22;6112104;23;7257;-74
2022/03/19 00:59:49;;;;;;;;;;;;;;;10.60;48.46;103149.47;6109902;23;7785;-75
2022/03/19 01:02:14;;;;;;;;;;;;;;;10.57;48.58;103154.34;6109650;23;6834;-74
2022/03/19 01:04:40;;;;;;;;;;;;;;;10.55;48.38;103151.63;6136264;23;6802;-74
2022/03/19 01:07:06;;;;;;;;;;;;;;;10.54;48.31;103148.94;6112492;23;6911;-74
2022/03/19 01:09:32;;;;;;;;;;;;;;;10.52;48.43;103146.22;6110997;23;6935;-74
2022/03/19 01:11:57;;;;;;;;;;;;;;;10.50;48.34;103139.13;6111389;23;6904;-74
2022/03/19 01:14:23;;;;;;;;;;;;;;;10.48;48.22;103145.78;6112054;23;7047;-74
2022/03/19 01:16:49;;;;;;;;;;;;;;;10.48;48.98;103135.53;6111376;23;6829;-74
2022/03/19 01:19:14;;;;;;;;;;;;;;;10.46;48.67;103137.94;6110946;23;6794;-74
2022/03/19 01:21:40;;;;;;;;;;;;;;;10.47;48.66;103146.56;6111573;23;6969;-74
2022/03/19 01:24:06;;;;;;;;;;;;;;;10.46;48.66;103142.19;6111989;23;6775;-74
2022/03/19 01:26:32;;;;;;;;;;;;;;;10.45;48.33;103135.25;6110036;23;6937;-74
2022/03/19 01:28:58;;;;;;;;;;;;;;;10.43;48.81;103137.69;6112088;23;6779;-74
2022/03/19 01:31:26;;;;;;;;;;;;;;;10.40;48.23;103140.81;6110081;23;6892;-74
2022/03/19 01:33:53;;;;;;;;;;;;;;;10.38;49.04;103132.09;6111036;23;7092;-74
2022/03/19 01:36:18;;;;;;;;;;;;;;;10.35;48.64;103134.38;6111597;23;6787;-74
2022/03/19 01:38:44;;;;;;;;;;;;;;;10.31;47.88;103133.94;6112716;23;6855;-74
2022/03/19 01:41:10;;;;;;;;;;;;;;;10.26;48.41;103125.81;6110173;23;7108;-74
2022/03/19 01:43:39;;;;;;;;;;;;;;;10.21;48.91;103127.03;6110467;23;6817;-75
2022/03/19 01:46:07;;;;;;;;;;;;;;;10.14;48.58;103121.38;6110080;23;6939;-74
2022/03/19 01:48:33;;;;;;;;;;;;;;;10.10;49.09;103126.06;6111299;23;6786;-74
2022/03/19 01:50:59;;;;;;;;;;;;;;;10.02;48.52;103121.88;6111992;23;6770;-74
2022/03/19 01:53:24;;;;;;;;;;;;;;;9.97;48.71;103124.00;6111507;23;6755;-74
2022/03/19 01:55:53;;;;;;;;;;;;;;;9.91;49.11;103118.28;6086644;23;6771;-74
2022/03/19 01:58:19;;;;;;;;;;;;;;;9.85;49.28;103123.75;6110270;23;7118;-74
2022/03/19 02:00:45;;;;;;;;;;;;;;;9.79;48.72;103116.38;6112385;23;6879;-74
2022/03/19 02:03:12;;;;;;;;;;;;;;;9.76;48.86;103113.53;6109443;23;6963;-74
2022/03/19 02:05:38;;;;;;;;;;;;;;;9.71;49.50;103114.75;6112324;23;6906;-74
2022/03/19 02:08:04;;;;;;;;;;;;;;;9.67;49.08;103117.78;6109788;23;6798;-74
2022/03/19 02:10:30;;;;;;;;;;;;;;;9.62;49.73;103107.09;6084159;23;7447;-74
2022/03/19 02:12:56;;;;;;;;;;;;;;;9.58;49.85;103103.34;6134243;23;6881;-74
2022/03/19 02:15:22;;;;;;;;;;;;;;;9.54;49.60;103101.22;6108939;23;6782;-74
2022/03/19 02:17:49;;;;;;;;;;;;;;;9.50;49.84;103100.78;6109657;23;6778;-74
2022/03/19 02:20:15;;;;;;;;;;;;;;;9.47;49.87;103101.41;6109283;23;6783;-74
2022/03/19 02:25:34;;;;;;;;;;;;;;;9.42;50.58;103093.31;6108536;23;6771;-74
2022/03/19 02:25:35;;;;;;;;;;;;;;;9.40;49.82;103088.78;6109975;23;6794;-74
2022/03/19 02:28:01;;;;;;;;;;;;;;;9.36;50.21;103092.69;6110228;23;6876;-74
2022/03/19 02:30:27;;;;;;;;;;;;;;;9.34;50.33;103085.63;6109176;23;6767;-74
2022/03/19 02:32:53;;;;;;;;;;;;;;;9.30;50.02;103081.88;6084641;23;6983;-74
2022/03/19 02:35:19;;;;;;;;;;;;;;;9.27;51.18;103092.72;6108993;23;6851;-74
2022/03/19 02:37:49;;;;;;;;;;;;;;;9.23;51.22;103088.06;6107340;23;7143;-75
2022/03/19 02:40:20;;;;;;;;;;;;;;;9.20;50.10;103087.75;6108560;23;6783;-75
2022/03/19 02:42:53;;;;;;;;;;;;;;;9.19;50.72;103087.59;6084626;23;6939;-74
2022/03/19 02:45:23;;;;;;;;;;;;;;;9.13;50.78;103086.28;6111735;23;7084;-74
2022/03/19 02:47:58;;;;;;;;;;;;;;;9.13;50.40;103085.34;6108313;23;6778;-74
2022/03/19 02:50:31;;;;;;;;;;;;;;;9.09;51.83;103081.59;6108732;23;6869;-74
2022/03/19 02:52:59;;;;;;;;;;;;;;;9.08;50.77;103077.25;6105862;23;7026;-74
2022/03/19 02:55:29;;;;;;;;;;;;;;;9.07;51.65;103084.75;6108084;23;8019;-74
2022/03/19 02:57:55;;;;;;;;;;;;;;;9.04;51.66;103077.72;6109034;23;6775;-74
2022/03/19 03:00:22;;;;;;;;;;;;;;;9.02;50.90;103082.66;6107996;23;6857;-74
2022/03/19 03:02:48;;;;;;;;;;;;;;;9.00;51.07;103084.19;6113332;23;6964;-74
2022/03/19 03:05:13;;;;;;;;;;;;;;;8.96;51.77;103078.63;6108288;23;7022;-74
2022/03/19 03:07:40;;;;;;;;;;;;;;;8.93;51.77;103081.75;6112536;23;6847;-74
2022/03/19 03:10:07;;;;;;;;;;;;;;;8.92;51.10;103079.97;6069908;23;1069419;-74
2022/03/19 03:12:35;;;;;;;;;;;;;;;8.91;51.92;103075.59;6114763;23;6861;-74
2022/03/19 03:15:01;;;;;;;;;;;;;;;8.90;51.63;103073.81;6114794;23;6936;-74
2022/03/19 03:17:28;;;;;;;;;;;;;;;8.89;51.55;103077.13;6113347;23;6966;-74
2022/03/19 03:19:54;;;;;;;;;;;;;;;8.88;51.14;103067.59;6114972;23;6783;-74
2022/03/19 03:22:20;;;;;;;;;;;;;;;8.88;51.96;103072.72;6115858;23;6778;-75
2022/03/19 03:24:45;;;;;;;;;;;;;;;8.86;52.30;103069.13;6116486;23;6802;-76
2022/03/19 03:27:11;;;;;;;;;;;;;;;8.83;51.44;103056.03;6088934;23;6890;-76
2022/03/19 03:29:37;;;;;;;;;;;;;;;8.82;52.14;103065.34;6113774;23;6766;-75
2022/03/19 03:32:03;;;;;;;;;;;;;;;8.80;51.75;103060.88;6112411;23;7027;-77
2022/03/19 03:34:28;;;;;;;;;;;;;;;8.79;52.08;103064.16;6116550;23;6942;-76
2022/03/19 03:36:54;;;;;;;;;;;;;;;8.75;51.87;103062.97;6115130;23;6774;-76
2022/03/19 03:39:20;;;;;;;;;;;;;;;8.74;51.27;103066.28;6118512;23;6770;-76
2022/03/19 03:41:46;;;;;;;;;;;;;;;8.71;52.71;103061.75;6115484;23;6950;-76
2022/03/19 03:44:11;;;;;;;;;;;;;;;8.69;52.60;103063.28;6114099;23;6915;-76
2022/03/19 03:46:37;;;;;;;;;;;;;;;8.66;52.30;103060.41;6113948;23;6782;-76
2022/03/19 03:49:03;;;;;;;;;;;;;;;8.65;51.79;103055.16;6117132;23;6779;-76
2022/03/19 03:51:28;;;;;;;;;;;;;;;8.61;52.53;103056.50;6118526;23;6778;-76
2022/03/19 03:53:54;;;;;;;;;;;;;;;8.58;51.77;103054.53;6116311;23;7074;-76
2022/03/19 03:56:21;;;;;;;;;;;;;;;8.55;52.91;103053.31;6116054;23;6854;-76
2022/03/19 03:58:47;;;;;;;;;;;;;;;8.52;52.16;103053.91;6117725;23;6806;-76
2022/03/19 04:01:12;;;;;;;;;;;;;;;8.50;53.00;103055.41;6116960;23;6775;-75
2022/03/19 04:03:38;;;;;;;;;;;;;;;8.46;52.40;103046.50;6113839;23;7123;-75
2022/03/19 04:06:04;;;;;;;;;;;;;;;8.45;52.05;103047.28;6115418;23;6853;-75
2022/03/19 04:08:31;;;;;;;;;;;;;;;8.42;52.64;103046.06;6114443;23;6850;-75
2022/03/19 04:10:57;;;;;;;;;;;;;;;8.40;52.54;103047.56;6087498;23;7121;-75
2022/03/19 04:13:22;;;;;;;;;;;;;;;8.36;52.72;103048.91;6111279;23;7337;-76
2022/03/19 04:15:49;;;;;;;;;;;;;;;8.33;52.50;103049.50;6113488;23;7820;-76
2022/03/19 04:18:15;;;;;;;;;;;;;;;8.31;52.65;103052.69;6112596;23;6802;-76
2022/03/19 04:20:41;;;;;;;;;;;;;;;8.27;51.84;103050.56;6112717;23;6974;-76
2022/03/19 04:23:07;;;;;;;;;;;;;;;8.23;51.98;103046.78;6110747;23;6774;-76
2022/03/19 04:25:32;;;;;;;;;;;;;;;8.18;52.42;103053.09;6088565;23;7135;-76
2022/03/19 04:27:58;;;;;;;;;;;;;;;8.13;52.06;103050.09;6113921;23;7125;-76
2022/03/19 04:30:27;;;;;;;;;;;;;;;8.08;52.53;103053.81;6087474;23;7026;-76
2022/03/19 04:32:57;;;;;;;;;;;;;;;8.03;52.94;103055.00;6111151;23;6945;-76
2022/03/19 04:38:21;;;;;;;;;;;;;;;7.87;52.79;103052.53;6113791;23;6991;-76
2022/03/19 04:40:52;;;;;;;;;;;;;;;7.82;53.06;103049.50;6111444;23;7159;-76
2022/03/19 04:43:18;;;;;;;;;;;;;;;7.77;53.28;103050.72;6113273;23;7187;-76
2022/03/19 04:45:44;;;;;;;;;;;;;;;7.75;53.31;103052.22;6109887;23;7009;-75
2022/03/19 04:48:11;;;;;;;;;;;;;;;7.70;52.83;103040.59;6087639;23;7043;-75
2022/03/19 04:50:39;;;;;;;;;;;;;;;7.68;52.83;103044.66;6107826;23;6787;-75
2022/03/19 04:53:06;;;;;;;;;;;;;;;7.63;53.47;103042.56;6108366;23;6977;-75
2022/03/19 04:55:33;;;;;;;;;;;;;;;7.61;53.77;103036.38;6110325;23;6791;-75
2022/03/19 04:57:59;;;;;;;;;;;;;;;7.61;52.90;103044.03;6111391;23;6886;-75
2022/03/19 05:00:25;;;;;;;;;;;;;;;7.59;52.90;103044.63;6104753;23;6779;-75
2022/03/19 05:02:50;;;;;;;;;;;;;;;7.57;52.92;103047.03;6107111;23;6778;-76
2022/03/19 05:05:16;;;;;;;;;;;;;;;7.57;53.92;103041.91;6111650;23;7233;-75
2022/03/19 05:07:42;;;;;;;;;;;;;;;7.57;53.93;103046.09;6111105;23;6953;-75
2022/03/19 05:12:54;;;;;;;;;;;;;;;7.50;53.74;103050.59;6113764;23;6866;-75
2022/03/19 05:15:20;;;;;;;;;;;;;;;7.49;53.82;103050.44;6111362;23;7963;-75
2022/03/19 05:17:46;;;;;;;;;;;;;;;7.47;53.34;103050.25;6112517;23;6763;-75
2022/03/19 05:20:13;;;;;;;;;;;;;;;7.44;53.39;103049.94;6111513;23;6782;-75
2022/03/19 05:22:39;;;;;;;;;;;;;;;7.40;53.83;103050.41;6112671;23;7824;-76
2022/03/19 05:25:06;;;;;;;;;;;;;;;7.39;54.19;103052.78;6114126;23;6888;-76
2022/03/19 05:27:32;;;;;;;;;;;;;;;7.35;54.12;103049.91;6115589;23;6864;-76
2022/03/19 05:29:58;;;;;;;;;;;;;;;7.33;54.40;103046.28;6112057;23;6778;-76
2022/03/19 05:32:24;;;;;;;;;;;;;;;7.32;54.07;103052.13;6110482;23;6775;-76
2022/03/19 05:34:51;;;;;;;;;;;;;;;7.30;54.36;103061.28;6110960;23;7119;-76
2022/03/19 05:37:17;;;;;;;;;;;;;;;7.28;53.65;103060.22;6111049;23;6791;-75
2022/03/19 05:39:43;;;;;;;;;;;;;;;7.26;54.29;103061.72;6114085;23;6997;-75
2022/03/19 05:42:11;;;;;;;;;;;;;;;7.24;54.23;103060.63;6084239;23;7078;-75
2022/03/19 05:44:37;;;;;;;;;;;;;;;7.19;54.05;103057.59;6111208;23;6959;-76
2022/03/19 05:47:04;;;;;;;;;;;;;;;7.16;54.08;103064.06;6113383;23;7141;-76
2022/03/19 05:49:30;;;;;;;;;;;;;;;7.14;54.51;103058.78;6112957;23;7211;-76
2022/03/19 05:51:57;;;;;;;;;;;;;;;7.13;54.60;103063.72;6107700;23;6866;-76
2022/03/19 05:54:25;;;;;;;;;;;;;;;7.13;54.18;103071.38;6106136;23;6988;-76
2022/03/19 05:56:53;;;;;;;;;;;;;;;7.12;54.78;103069.56;6112762;23;6778;-76
2022/03/19 05:59:20;;;;;;;;;;;;;;;7.11;54.67;103068.69;6111994;23;6813;-76
2022/03/19 06:01:46;;;;;;;;;;;;;;;7.11;54.17;103075.41;6136226;23;6977;-76
2022/03/19 06:04:11;;;;;;;;;;;;;;;7.09;54.29;103080.34;6111402;23;6939;-76
2022/03/19 06:06:37;;;;;;;;;;;;;;;7.11;54.88;103075.41;6112616;23;6934;-75
2022/03/19 06:09:03;;;;;;;;;;;;;;;7.12;55.06;103072.09;6113107;23;7935;-76
2022/03/19 06:11:29;;;;;;;;;;;;;;;7.14;54.70;103076.63;6111759;23;6945;-75
2022/03/19 06:13:55;;;;;;;;;;;;;;;7.17;55.19;103070.97;6111830;23;7428;-75
2022/03/19 06:16:21;;;;;;;;;;;;;;;7.21;55.35;103068.91;6113838;23;6902;-75
2022/03/19 06:18:50;;;;;;;;;;;;;;;7.27;55.14;103063.53;6110987;23;6778;-76
2022/03/19 06:21:17;;;;;;;;;;;;;;;7.33;55.39;103071.78;6135870;23;6778;-76
2022/03/19 06:23:45;;;;;;;;;;;;;;;7.39;55.20;103066.44;6133954;23;7046;-76
2022/03/19 06:26:11;;;;;;;;;;;;;;;7.45;55.60;103067.06;6110199;23;6982;-76
2022/03/19 06:28:38;;;;;;;;;;;;;;;7.53;54.85;103070.41;6110395;23;6787;-76
2022/03/19 06:31:04;;;;;;;;;;;;;;;7.59;55.75;103068.50;6110443;23;7087;-75
2022/03/19 06:33:30;;;;;;;;;;;;;;;7.67;55.85;103065.84;6086621;23;6861;-75
2022/03/19 06:38:40;;;;;;;;;;;;;;;7.77;55.88;103066.03;6113550;23;7358;-75
2022/03/19 06:41:06;;;;;;;;;;;;;;;7.82;55.53;103064.81;6110967;23;7015;-75
2022/03/19 06:43:32;;;;;;;;;;;;;;;7.90;55.21;103066.53;6111259;23;6783;-76
2022/03/19 06:45:58;;;;;;;;;;;;;;;7.96;55.45;103065.34;6113124;23;7160;-76
2022/03/19 06:48:27;;;;;;;;;;;;;;;7.99;55.68;103058.00;6089034;23;8450;-76
2022/03/19 06:50:54;;;;;;;;;;;;;;;8.03;54.91;103060.13;6110625;23;6863;-76
2022/03/19 06:53:21;;;;;;;;;;;;;;;8.09;54.65;103060.72;6112405;23;7539;-76
2022/03/19 06:55:47;;;;;;;;;;;;;;;8.14;54.59;103057.00;6113556;23;6775;-76
2022/03/19 06:58:12;;;;;;;;;;;;;;;8.21;55.58;103058.50;6112890;23;6771;-76
2022/03/19 07:00:40;;;;;;;;;;;;;;;8.30;54.97;103049.22;6112744;23;7053;-76
2022/03/19 07:03:06;;;;;;;;;;;;;;;8.38;55.58;103047.41;6087876;23;8383;-76
2022/03/19 07:05:32;;;;;;;;;;;;;;;8.47;55.40;103050.00;6113165;23;8250;-76
2022/03/19 07:08:00;;;;;;;;;;;;;;;8.57;55.84;103051.81;6113346;23;7060;-76
2022/03/19 07:10:26;;;;;;;;;;;;;;;8.67;55.56;103049.41;6113219;23;6787;-76
2022/03/19 07:12:55;;;;;;;;;;;;;;;8.78;55.64;103057.22;6111740;23;6770;-76
2022/03/19 07:15:28;;;;;;;;;;;;;;;8.88;56.08;103063.41;6089361;23;6832;-76
2022/03/19 07:17:55;;;;;;;;;;;;;;;9.01;55.18;103056.91;6113999;23;6958;-76
2022/03/19 07:20:20;;;;;;;;;;;;;;;9.14;54.97;103061.56;6112477;23;7262;-76
2022/03/19 07:22:52;;;;;;;;;;;;;;;9.26;55.08;103057.63;6088301;23;6763;-76
2022/03/19 07:25:20;;;;;;;;;;;;;;;9.41;55.58;103057.31;6115879;23;6862;-76
2022/03/19 07:27:49;;;;;;;;;;;;;;;9.56;56.04;103052.75;6089365;23;7152;-76
2022/03/19 07:30:14;;;;;;;;;;;;;;;9.70;54.89;103049.81;6115179;23;6783;-76
2022/03/19 07:32:40;;;;;;;;;;;;;;;9.82;54.74;103039.81;6114093;23;6942;-76
2022/03/19 07:35:08;;;;;;;;;;;;;;;9.99;54.93;103043.06;6114402;23;7076;-76
2022/03/19 07:37:34;;;;;;;;;;;;;;;10.12;54.61;103040.84;6090872;23;6787;-76
2022/03/19 07:40:01;;;;;;;;;;;;;;;10.26;55.12;103043.81;6116262;23;7187;-76
2022/03/19 07:42:27;;;;;;;;;;;;;;;10.38;54.60;103044.91;6089369;23;6763;-76
2022/03/19 07:44:53;;;;;;;;;;;;;;;10.51;54.04;103043.50;6115163;23;6810;-76
2022/03/19 07:47:19;;;;;;;;;;;;;;;10.61;53.82;103037.53;6116663;23;6794;-76
2022/03/19 07:49:45;;;;;;;;;;;;;;;10.73;53.63;103042.88;6138265;23;7013;-76
2022/03/19 07:52:11;;;;;;;;;;;;;;;10.83;53.99;103042.94;6114777;23;6910;-76
2022/03/19 07:54:37;;;;;;;;;;;;;;;10.95;53.52;103046.59;6114162;23;6810;-76
2022/03/19 07:57:08;;;;;;;;;;;;;;;11.07;53.37;103035.59;6114103;23;6786;-76
2022/03/19 07:59:34;;;;;;;;;;;;;;;11.21;53.28;103040.31;6090493;23;7695;-76
2022/03/19 08:02:00;;;;;;;;;;;;;;;11.34;52.56;103037.13;6116365;23;6932;-76
2022/03/19 08:04:26;;;;;;;;;;;;;;;11.48;52.29;103050.28;6116177;23;6770;-76
2022/03/19 08:06:53;;;;;;;;;;;;;;;11.61;51.45;103031.69;6114790;23;6783;-76
2022/03/19 08:09:19;;;;;;;;;;;;;;;11.71;51.26;103031.72;6114313;23;8405;-76
2022/03/19 08:11:47;;;;;;;;;;;;;;;11.79;51.08;103038.41;6089802;23;6991;-76
2022/03/19 08:14:14;;;;;;;;;;;;;;;11.89;51.36;103041.75;6114436;23;7168;-76
2022/03/19 08:16:47;;;;;;;;;;;;;;;11.97;50.61;103033.00;6115041;23;6779;-76
2022/03/19 08:19:14;;;;;;;;;;;;;;;12.08;50.77;103036.53;6116216;23;6787;-76
2022/03/19 08:21:44;;;;;;;;;;;;;;;12.15;50.11;103030.22;6112451;23;7237;-76
2022/03/19 08:24:11;;;;;;;;;;;;;;;12.23;49.82;103031.75;6114696;23;6786;-76
2022/03/19 08:26:38;;;;;;;;;;;;;;;12.32;49.43;103022.25;6113441;23;7191;-76
2022/03/19 08:29:04;;;;;;;;;;;;;;;12.41;48.83;103023.78;6114587;23;6783;-76
2022/03/19 08:31:32;;;;;;;;;;;;;;;12.47;49.03;103025.16;6114213;23;6815;-76
2022/03/19 08:33:58;;;;;;;;;;;;;;;12.56;48.62;103032.75;6112417;23;6946;-76
2022/03/19 08:36:25;;;;;;;;;;;;;;;12.67;49.07;103030.16;6110333;23;7444;-76
2022/03/19 08:41:36;;;;;;;;;;;;;;;12.81;48.16;103023.56;6111963;23;6994;-76
2022/03/19 08:44:02;;;;;;;;;;;;;;;12.92;47.97;103025.31;6114095;23;6782;-76
2022/03/19 08:46:29;;;;;;;;;;;;;;;13.03;48.41;103026.16;6090260;23;6802;-76
2022/03/19 08:48:54;;;;;;;;;;;;;;;13.12;47.18;103026.91;6115525;23;7516;-76
2022/03/19 08:54:06;;;;;;;;;;;;;;;13.35;47.16;103017.53;6114336;23;6790;-76
2022/03/19 08:56:34;;;;;;;;;;;;;;;13.47;46.33;103017.63;6113341;23;6947;-76
2022/03/19 08:59:01;;;;;;;;;;;;;;;13.58;46.37;103018.47;6114841;23;6786;-76
2022/03/19 09:01:27;;;;;;;;;;;;;;;13.67;46.22;103016.59;6113240;23;6787;-76
2022/03/19 09:03:53;;;;;;;;;;;;;;;13.77;46.28;103007.00;6116319;23;7120;-76
2022/03/19 09:06:20;;;;;;;;;;;;;;;13.85;45.58;103006.78;6114012;23;7123;-76
2022/03/19 09:08:47;;;;;;;;;;;;;;;13.93;44.26;103012.56;6138331;23;6957;-76
2022/03/19 09:11:13;;;;;;;;;;;;;;;13.97;44.47;103013.69;6111050;23;6948;-76
2022/03/19 09:13:39;;;;;;;;;;;;;;;14.02;45.09;103004.59;6113855;23;6782;-76
2022/03/19 09:16:07;;;;;;;;;;;;;;;14.07;44.24;103005.88;6087689;23;6957;-76
2022/03/19 09:18:33;;;;;;;;;;;;;;;14.10;43.95;103000.91;6115751;23;6778;-76
2022/03/19 09:20:58;;;;;;;;;;;;;;;14.15;44.36;102998.69;6112302;23;6782;-76
2022/03/19 09:23:25;;;;;;;;;;;;;;;14.22;43.61;103000.94;6137002;23;6770;-76
2022/03/19 09:25:51;;;;;;;;;;;;;;;14.26;43.57;102999.50;6113948;23;6949;-76
2022/03/19 09:28:17;;;;;;;;;;;;;;;14.32;43.34;103001.63;6112383;23;6918;-76
2022/03/19 09:30:43;;;;;;;;;;;;;;;14.36;43.02;102999.41;6138003;23;7280;-76
2022/03/19 09:33:08;;;;;;;;;;;;;;;14.43;42.67;102993.00;6114504;23;6845;-76
2022/03/19 09:35:35;;;;;;;;;;;;;;;14.47;42.74;102999.28;6088788;23;7302;-76
2022/03/19 09:38:02;;;;;;;;;;;;;;;14.50;41.63;102997.84;6114152;23;6778;-76
2022/03/19 09:40:27;;;;;;;;;;;;;;;14.52;42.16;102991.09;6114033;23;6779;-76
2022/03/19 09:42:59;;;;;;;;;;;;;;;14.58;42.49;102986.41;6113312;23;6763;-76
2022/03/19 09:45:27;;;;;;;;;;;;;;;14.64;41.42;102985.03;6114331;23;6953;-76
2022/03/19 09:47:55;;;;;;;;;;;;;;;14.67;42.26;102980.09;6114141;23;7030;-76
2022/03/19 09:50:22;;;;;;;;;;;;;;;14.72;41.48;102978.75;6113337;23;7015;-77
2022/03/19 09:52:54;;;;;;;;;;;;;;;14.79;41.95;102964.63;6088933;23;6846;-77
2022/03/19 09:55:26;;;;;;;;;;;;;;;14.85;41.10;102965.94;6089182;23;7042;-76
2022/03/19 09:57:54;;;;;;;;;;;;;;;14.92;40.97;102948.31;6113557;23;6779;-76
2022/03/19 10:00:22;;;;;;;;;;;;;;;14.94;40.71;102950.22;6138673;23;6775;-76
2022/03/19 10:02:55;;;;;;;;;;;;;;;14.98;41.64;102951.34;6112509;23;7061;-76
2022/03/19 10:10:51;;;;;;;;;;;;;;;15.17;40.97;102942.31;6113815;23;6994;-76
2022/03/19 10:13:17;;;;;;;;;;;;;;;15.26;41.13;102942.94;6112409;23;6984;-76
2022/03/19 10:15:44;;;;;;;;;;;;;;;15.35;40.94;102929.75;6114014;23;6770;-76
2022/03/19 10:18:11;;;;;;;;;;;;;;;15.44;40.50;102926.91;6114601;23;6778;-76
2022/03/19 10:20:37;;;;;;;;;;;;;;;15.50;40.20;102929.91;6112807;23;6970;-77
2022/03/19 10:23:04;;;;;;;;;;;;;;;15.52;39.64;102921.47;6114515;23;7177;-77
2022/03/19 10:25:31;;;;;;;;;;;;;;;15.59;40.30;102920.19;6113104;23;7121;-77
2022/03/19 10:28:09;;;;;;;;;;;;;;;15.83;38.75;102920.03;6113510;23;6925;-76
2022/03/19 10:30:44;;;;;;;;;;;;;;;16.57;37.83;102911.06;6112899;23;7005;-76
2022/03/19 10:33:11;;;;;;;;;;;;;;;17.57;36.41;102907.59;6113586;23;6798;-76
2022/03/19 10:35:41;;;;;;;;;;;;;;;18.60;35.46;102892.63;6114959;23;6838;-76
2022/03/19 10:38:25;;;;;;;;;;;;;;;19.55;34.57;102893.28;6113835;23;7627;-76
2022/03/19 10:40:53;;;;;;;;;;;;;;;20.34;33.98;102885.81;6113414;23;6987;-77
2022/03/19 10:43:23;;;;;;;;;;;;;;;21.06;32.88;102876.94;6137057;23;6790;-77
2022/03/19 10:45:52;;;;;;;;;;;;;;;21.72;32.07;102867.53;6113655;23;6964;-77
2022/03/19 10:48:30;;;;;;;;;;;;;;;22.37;30.61;102869.22;6112850;23;6787;-77
2022/03/19 10:50:57;;;;;;;;;;;;;;;22.71;29.56;102860.03;6113237;23;6997;-77
2022/03/19 10:53:25;;;;;;;;;;;;;;;22.98;29.67;102850.50;6112847;23;7057;-77
2022/03/19 10:55:52;;;;;;;;;;;;;;;23.33;29.82;102840.44;6115325;23;6786;-77
2022/03/19 10:58:18;;;;;;;;;;;;;;;23.80;29.35;102834.09;6113214;23;6787;-77
2022/03/19 11:00:48;;;;;;;;;;;;;;;24.18;28.77;102836.13;6115699;23;8159;-77
2022/03/19 11:03:30;;;;;;;;;;;;;;;24.40;28.08;102824.53;6114909;23;6859;-77
2022/03/19 11:06:04;;;;;;;;;;;;;;;24.68;27.99;102828.84;6115677;23;7044;-77
2022/03/19 11:08:46;;;;;;;;;;;;;;;24.85;27.68;102822.31;6117850;23;6897;-77
2022/03/19 11:11:32;;;;;;;;;;;;;;;24.78;26.55;102813.41;6137690;23;6956;-77
2022/03/19 11:14:01;;;;;;;;;;;;;;;24.87;26.80;102805.78;6092868;23;6964;-77
2022/03/19 11:16:36;;;;;;;;;;;;;;;25.03;25.67;102799.19;6116222;23;6849;-77
2022/03/19 11:19:03;;;;;;;;;;;;;;;24.96;24.99;102799.88;6114633;23;6994;-77
2022/03/19 11:21:32;;;;;;;;;;;;;;;24.77;25.29;102794.13;6113458;23;7086;-77
2022/03/19 11:24:23;;;;;;;;;;;;;;;24.80;25.24;102788.97;6115002;23;7205;-77
2022/03/19 11:26:51;;;;;;;;;;;;;;;24.95;25.09;102782.38;6115081;23;6782;-77
2022/03/19 11:29:19;;;;;;;;;;;;;;;25.30;24.60;102778.84;6115035;23;7022;-77
2022/03/19 11:31:58;;;;;;;;;;;;;;;25.74;24.69;102770.28;6114922;23;7113;-77
2022/03/19 11:34:24;;;;;;;;;;;;;;;26.07;23.91;102756.06;6114350;23;7211;-77
2022/03/19 11:37:02;;;;;;;;;;;;;;;26.09;23.34;102750.84;6090588;23;6827;-77
2022/03/19 11:39:28;;;;;;;;;;;;;;;25.92;23.44;102749.66;6114005;23;6775;-77
2022/03/19 11:41:54;;;;;;;;;;;;;;;25.82;22.76;102758.19;6113503;23;6933;-77
2022/03/19 11:44:26;;;;;;;;;;;;;;;25.69;22.29;102748.25;6115020;23;6770;-77
2022/03/19 11:46:57;;;;;;;;;;;;;;;25.70;22.43;102748.31;6115567;23;6783;-77
2022/03/19 11:49:55;;;;;;;;;;;;;;;25.96;22.78;102737.47;6114428;23;7800;-77
2022/03/19 11:52:26;;;;;;;;;;;;;;;26.20;22.35;102730.97;6115067;23;6920;-77
2022/03/19 11:55:16;;;;;;;;;;;;;;;26.30;22.20;102726.78;6116195;23;6862;-77
2022/03/19 11:58:00;;;;;;;;;;;;;;;26.53;22.22;102713.16;6114766;23;6783;-77
2022/03/19 12:00:32;;;;;;;;;;;;;;;26.80;22.17;102709.25;6116405;23;6779;-77
2022/03/19 12:03:04;;;;;;;;;;;;;;;27.05;21.50;102696.53;6114238;23;6969;-77
2022/03/19 12:05:35;;;;;;;;;;;;;;;26.97;20.66;102697.31;6114360;23;7038;-77
2022/03/19 12:08:18;;;;;;;;;;;;;;;26.65;19.70;102680.97;6115256;23;6945;-77
2022/03/19 12:11:02;;;;;;;;;;;;;;;26.44;19.50;102685.84;6114240;23;6786;-77
2022/03/19 12:13:27;;;;;;;;;;;;;;;26.15;19.15;102677.41;6114851;23;6969;-77
2022/03/19 12:15:59;;;;;;;;;;;;;;;25.86;19.23;102665.47;6117058;23;6839;-77
2022/03/19 12:18:42;;;;;;;;;;;;;;;25.68;20.25;102659.84;6090551;23;6851;-77
2022/03/19 12:21:10;;;;;;;;;;;;;;;25.60;20.13;102652.72;6113445;23;6798;-77
2022/03/19 12:23:56;;;;;;;;;;;;;;;25.76;19.64;102655.63;6115089;23;6862;-77
2022/03/19 12:26:24;;;;;;;;;;;;;;;25.77;19.69;102644.28;6114827;23;7077;-77
2022/03/19 12:29:03;;;;;;;;;;;;;;;25.71;20.17;102634.53;6114889;23;6782;-77
2022/03/19 12:31:42;;;;;;;;;;;;;;;25.60;19.74;102631.72;6114101;23;6782;-77
2022/03/19 12:34:24;;;;;;;;;;;;;;;25.35;19.78;102627.63;6115612;23;6779;-77
2022/03/19 12:36:59;;;;;;;;;;;;;;;24.67;20.15;102619.97;6115128;23;6787;-77
2022/03/19 12:39:25;;;;;;;;;;;;;;;23.65;20.79;102612.00;6114008;23;7034;-77
2022/03/19 12:41:50;;;;;;;;;;;;;;;22.66;21.34;102600.28;6115780;23;6758;-77
2022/03/19 12:44:27;;;;;;;;;;;;;;;21.78;21.83;102598.97;6116691;23;6762;-77
2022/03/19 12:47:01;;;;;;;;;;;;;;;21.06;22.45;102612.75;6114676;23;6986;-77
2022/03/19 12:49:29;;;;;;;;;;;;;;;20.53;22.75;102615.78;6114217;23;7796;-77
2022/03/19 12:51:56;;;;;;;;;;;;;;;20.10;22.65;102600.13;6113340;23;7113;-77
2022/03/19 12:54:30;;;;;;;;;;;;;;;19.75;22.84;102601.09;6138447;23;6984;-76
2022/03/19 12:57:11;;;;;;;;;;;;;;;19.43;24.26;102604.03;6113774;23;6775;-76
2022/03/19 12:59:49;;;;;;;;;;;;;;;19.17;24.16;102593.28;6115449;23;6774;-76
2022/03/19 13:02:15;;;;;;;;;;;;;;;18.93;24.68;102591.28;6114210;23;7011;-76
2022/03/19 13:04:44;;;;;;;;;;;;;;;18.74;24.70;102582.59;6114042;23;6991;-76
2022/03/19 13:07:17;;;;;;;;;;;;;;;18.60;24.97;102581.91;6138480;23;6778;-76
2022/03/19 13:09:44;;;;;;;;;;;;;;;18.49;25.25;102582.19;6089686;23;7019;-77
2022/03/19 13:12:22;;;;;;;;;;;;;;;18.38;24.98;102574.75;6115764;23;7931;-77
2022/03/19 13:14:54;;;;;;;;;;;;;;;18.31;25.44;102577.84;6114222;23;6863;-76